createdAt,value
2022-12-31T00:00:18.577Z,98211.22
2022-12-31T00:02:45.735Z,98211.38
2022-12-31T00:05:13.699Z,98208.75
2022-12-31T00:10:06.761Z,98217.00
2022-12-31T00:12:33.846Z,98212.75
2022-12-31T00:15:00.918Z,98212.03
2022-12-31T00:17:28.146Z,98208.34
2022-12-31T00:19:55.285Z,98209.59
2022-12-31T00:22:22.392Z,98215.75
2022-12-31T00:24:49.473Z,98215.47
2022-12-31T00:27:16.797Z,98214.28
2022-12-31T00:29:43.872Z,98216.88
2022-12-31T00:32:11.031Z,98218.38
2022-12-31T00:34:38.125Z,98210.94
2022-12-31T00:37:05.188Z,98221.94
2022-12-31T00:39:32.284Z,98229.09
2022-12-31T00:41:59.401Z,98229.78
2022-12-31T00:44:26.491Z,98227.72
2022-12-31T00:46:53.996Z,98224.03
2022-12-31T00:49:21.141Z,98225.69
2022-12-31T00:51:48.252Z,98221.28
2022-12-31T00:54:15.371Z,98231.75
2022-12-31T00:56:42.453Z,98240.94
2022-12-31T00:59:09.538Z,98243.84
2022-12-31T01:01:36.805Z,98251.69
2022-12-31T01:04:03.995Z,98261.88
2022-12-31T01:06:31.140Z,98266.66
2022-12-31T01:08:58.284Z,98272.44
2022-12-31T01:11:29.505Z,98277.97
2022-12-31T01:13:56.721Z,98281.25
2022-12-31T01:16:23.871Z,98289.38
2022-12-31T01:18:50.963Z,98293.91
2022-12-31T01:21:18.024Z,98285.81
2022-12-31T01:23:45.144Z,98287.06
2022-12-31T01:26:12.432Z,98283.59
2022-12-31T01:28:39.599Z,98284.72
2022-12-31T01:31:06.754Z,98286.91
2022-12-31T01:33:33.961Z,98291.84
2022-12-31T01:36:01.025Z,98295.84
2022-12-31T01:38:28.089Z,98306.00
2022-12-31T01:40:55.208Z,98309.59
2022-12-31T01:43:22.305Z,98307.53
2022-12-31T01:45:49.387Z,98313.19
2022-12-31T01:48:16.460Z,98318.53
2022-12-31T01:50:44.386Z,98320.19
2022-12-31T01:53:11.550Z,98322.81
2022-12-31T01:55:38.622Z,98325.81
2022-12-31T01:58:05.694Z,98320.31
2022-12-31T02:00:32.774Z,98325.00
2022-12-31T02:02:59.882Z,98327.75
2022-12-31T02:05:26.984Z,98321.84
2022-12-31T02:07:54.076Z,98323.50
2022-12-31T02:10:21.299Z,98323.91
2022-12-31T02:12:48.401Z,98318.41
2022-12-31T02:15:15.501Z,98319.91
2022-12-31T02:17:42.581Z,98325.00
2022-12-31T02:20:09.739Z,98330.78
2022-12-31T02:22:36.855Z,98330.50
2022-12-31T02:25:04.027Z,98333.38
2022-12-31T02:27:31.114Z,98337.94
2022-12-31T02:29:58.264Z,98321.00
2022-12-31T02:32:25.512Z,98330.09
2022-12-31T02:34:52.616Z,98315.78
2022-12-31T02:37:19.702Z,98318.66
2022-12-31T02:39:46.793Z,98314.00
2022-12-31T02:42:13.868Z,98318.66
2022-12-31T02:44:40.948Z,98317.41
2022-12-31T02:47:08.032Z,98320.72
2022-12-31T02:49:35.177Z,98336.25
2022-12-31T02:52:02.317Z,98326.38
2022-12-31T02:54:29.418Z,98336.69
2022-12-31T02:56:56.481Z,98330.88
2022-12-31T02:59:42.491Z,98337.22
2022-12-31T03:02:15.793Z,98335.00
2022-12-31T03:04:43.309Z,98345.72
2022-12-31T03:07:10.448Z,98355.31
2022-12-31T03:09:37.562Z,98345.47
2022-12-31T03:12:23.598Z,98350.94
2022-12-31T03:14:50.675Z,98354.66
2022-12-31T03:17:17.748Z,98354.38
2022-12-31T03:20:03.349Z,98349.78
2022-12-31T03:22:30.598Z,98349.84
2022-12-31T03:25:16.671Z,98343.81
2022-12-31T03:27:43.808Z,98344.41
2022-12-31T03:30:10.874Z,98347.25
2022-12-31T03:32:37.964Z,98349.59
2022-12-31T03:35:05.033Z,98342.47
2022-12-31T03:37:32.125Z,98341.34
2022-12-31T03:39:59.187Z,98338.75
2022-12-31T03:42:26.289Z,98344.13
2022-12-31T03:44:53.366Z,98341.50
2022-12-31T03:47:20.462Z,98343.72
2022-12-31T03:49:47.531Z,98330.34
2022-12-31T03:52:14.641Z,98331.19
2022-12-31T03:54:41.711Z,98335.19
2022-12-31T03:57:08.806Z,98344.53
2022-12-31T03:59:35.920Z,98344.25
2022-12-31T04:02:03.296Z,98349.88
2022-12-31T04:04:30.624Z,98343.72
2022-12-31T04:06:57.700Z,98343.00
2022-12-31T04:09:24.798Z,98344.81
2022-12-31T04:11:51.879Z,98344.66
2022-12-31T04:14:18.969Z,98352.50
2022-12-31T04:16:46.083Z,98352.50
2022-12-31T04:19:13.231Z,98358.69
2022-12-31T04:21:40.326Z,98357.06
2022-12-31T04:24:07.478Z,98360.47
2022-12-31T04:26:34.546Z,98367.34
2022-12-31T04:29:01.626Z,98361.88
2022-12-31T04:31:28.724Z,98353.63
2022-12-31T04:33:55.803Z,98356.22
2022-12-31T04:36:22.860Z,98355.53
2022-12-31T04:38:49.949Z,98351.94
2022-12-31T04:41:17.041Z,98360.47
2022-12-31T04:43:44.233Z,98362.28
2022-12-31T04:46:11.331Z,98370.94
2022-12-31T04:48:38.525Z,98373.53
2022-12-31T04:51:05.629Z,98371.09
2022-12-31T04:53:32.715Z,98365.31
2022-12-31T04:55:59.794Z,98373.97
2022-12-31T04:58:26.879Z,98368.59
2022-12-31T05:00:55.319Z,98373.16
2022-12-31T05:03:22.515Z,98373.16
2022-12-31T05:05:50.154Z,98374.78
2022-12-31T05:08:17.278Z,98376.03
2022-12-31T05:10:44.363Z,98369.97
2022-12-31T05:13:11.446Z,98361.44
2022-12-31T05:15:38.523Z,98375.31
2022-12-31T05:18:05.610Z,98369.16
2022-12-31T05:20:32.693Z,98386.59
2022-12-31T05:22:59.773Z,98384.94
2022-12-31T05:25:26.845Z,98386.88
2022-12-31T05:27:54.019Z,98382.75
2022-12-31T05:30:21.124Z,98396.47
2022-12-31T05:32:48.187Z,98391.00
2022-12-31T05:35:15.314Z,98391.13
2022-12-31T05:37:42.398Z,98396.91
2022-12-31T05:40:09.485Z,98399.25
2022-12-31T05:42:36.580Z,98400.31
2022-12-31T05:45:03.640Z,98401.56
2022-12-31T05:47:30.725Z,98398.84
2022-12-31T05:49:57.791Z,98398.56
2022-12-31T05:52:24.872Z,98401.19
2022-12-31T05:54:51.945Z,98409.28
2022-12-31T05:57:19.161Z,98412.00
2022-12-31T05:59:46.340Z,98413.25
2022-12-31T06:02:13.508Z,98409.28
2022-12-31T06:04:40.692Z,98413.69
2022-12-31T06:07:07.751Z,98410.38
2022-12-31T06:09:34.828Z,98425.22
2022-12-31T06:12:01.898Z,98435.09
2022-12-31T06:14:29.005Z,98425.63
2022-12-31T06:16:56.079Z,98417.63
2022-12-31T06:19:23.143Z,98421.47
2022-12-31T06:21:50.233Z,98411.41
2022-12-31T06:24:17.296Z,98416.41
2022-12-31T06:26:44.384Z,98423.50
2022-12-31T06:29:11.479Z,98422.56
2022-12-31T06:31:38.598Z,98417.03
2022-12-31T06:34:05.667Z,98422.38
2022-12-31T06:36:32.743Z,98424.41
2022-12-31T06:38:59.822Z,98428.94
2022-12-31T06:41:26.874Z,98416.94
2022-12-31T06:43:54.044Z,98429.31
2022-12-31T06:46:21.139Z,98433.72
2022-12-31T06:48:48.253Z,98426.00
2022-12-31T06:51:17.495Z,98428.75
2022-12-31T06:53:44.768Z,98431.78
2022-12-31T06:56:11.879Z,98441.38
2022-12-31T06:58:38.950Z,98447.44
2022-12-31T07:01:06.074Z,98449.47
2022-12-31T07:03:33.150Z,98447.94
2022-12-31T07:06:00.241Z,98441.06
2022-12-31T07:08:27.328Z,98447.25
2022-12-31T07:10:54.443Z,98449.88
2022-12-31T07:13:21.659Z,98442.16
2022-12-31T07:15:48.728Z,98446.56
2022-12-31T07:18:16.010Z,98446.81
2022-12-31T07:20:43.247Z,98449.56
2022-12-31T07:23:10.317Z,98454.88
2022-12-31T07:25:37.419Z,98458.31
2022-12-31T07:28:04.563Z,98461.06
2022-12-31T07:30:31.629Z,98468.06
2022-12-31T07:32:59.004Z,98459.44
2022-12-31T07:35:31.283Z,98479.59
2022-12-31T07:38:01.745Z,98467.50
2022-12-31T07:40:28.818Z,98464.91
2022-12-31T07:42:55.883Z,98475.59
2022-12-31T07:45:22.949Z,98472.88
2022-12-31T07:47:50.082Z,98474.75
2022-12-31T07:50:17.151Z,98468.72
2022-12-31T07:52:44.302Z,98468.72
2022-12-31T07:55:11.369Z,98480.22
2022-12-31T07:57:38.488Z,98479.41
2022-12-31T08:00:05.571Z,98488.19
2022-12-31T08:02:32.730Z,98492.59
2022-12-31T08:04:59.878Z,98486.56
2022-12-31T08:07:26.959Z,98493.66
2022-12-31T08:09:54.021Z,98496.28
2022-12-31T08:12:21.126Z,98501.63
2022-12-31T08:14:48.304Z,98501.63
2022-12-31T08:17:15.428Z,98511.22
2022-12-31T08:19:42.518Z,98519.16
2022-12-31T08:22:09.602Z,98527.00
2022-12-31T08:24:37.956Z,98522.84
2022-12-31T08:27:05.141Z,98528.22
2022-12-31T08:29:32.225Z,98522.16
2022-12-31T08:31:59.346Z,98520.53
2022-12-31T08:34:26.596Z,98525.75
2022-12-31T08:36:53.679Z,98517.91
2022-12-31T08:39:20.783Z,98519.81
2022-12-31T08:41:47.910Z,98524.88
2022-12-31T08:44:14.989Z,98530.25
2022-12-31T08:46:42.130Z,98528.44
2022-12-31T08:49:09.243Z,98526.81
2022-12-31T08:51:36.355Z,98529.53
2022-12-31T08:54:03.881Z,98537.34
2022-12-31T08:56:31.004Z,98533.09
2022-12-31T08:58:58.098Z,98536.66
2022-12-31T09:01:25.214Z,98530.63
2022-12-31T09:03:52.446Z,98543.78
2022-12-31T09:06:19.537Z,98548.88
2022-12-31T09:08:46.611Z,98548.41
2022-12-31T09:11:19.212Z,98551.00
2022-12-31T09:13:49.819Z,98551.72
2022-12-31T09:16:16.972Z,98553.50
2022-12-31T09:18:44.173Z,98552.69
2022-12-31T09:21:11.332Z,98558.00
2022-12-31T09:23:38.457Z,98565.72
2022-12-31T09:26:05.516Z,98561.59
2022-12-31T09:28:32.583Z,98560.75
2022-12-31T09:30:59.760Z,98557.31
2022-12-31T09:33:26.846Z,98572.25
2022-12-31T09:35:53.909Z,98573.91
2022-12-31T09:38:21.026Z,98573.91
2022-12-31T09:40:48.102Z,98575.69
2022-12-31T09:43:15.209Z,98575.81
2022-12-31T09:45:42.353Z,98575.00
2022-12-31T09:48:09.451Z,98577.72
2022-12-31T09:50:37.672Z,98576.19
2022-12-31T09:53:04.746Z,98587.44
2022-12-31T09:55:32.166Z,98588.13
2022-12-31T09:57:59.240Z,98584.72
2022-12-31T10:00:26.356Z,98590.75
2022-12-31T10:02:53.578Z,98590.88
2022-12-31T10:05:20.776Z,98588.41
2022-12-31T10:07:52.456Z,98575.38
2022-12-31T10:10:20.708Z,98572.88
2022-12-31T10:12:47.786Z,98572.88
2022-12-31T10:15:14.857Z,98573.00
2022-12-31T10:17:41.934Z,98567.91
2022-12-31T10:20:09.028Z,98572.88
2022-12-31T10:22:36.349Z,98571.22
2022-12-31T10:25:03.424Z,98561.75
2022-12-31T10:27:30.540Z,98561.03
2022-12-31T10:29:57.616Z,98565.66
2022-12-31T10:32:31.058Z,98566.25
2022-12-31T10:34:58.596Z,98563.66
2022-12-31T10:37:25.709Z,98556.41
2022-12-31T10:39:52.789Z,98563.25
2022-12-31T10:42:19.891Z,98563.41
2022-12-31T10:44:46.970Z,98559.00
2022-12-31T10:47:14.054Z,98558.19
2022-12-31T10:49:41.162Z,98561.75
2022-12-31T10:52:08.371Z,98568.63
2022-12-31T10:54:35.439Z,98574.78
2022-12-31T10:57:07.388Z,98569.56
2022-12-31T10:59:34.547Z,98580.09
2022-12-31T11:02:01.682Z,98577.41
2022-12-31T11:04:28.823Z,98574.78
2022-12-31T11:06:55.953Z,98569.56
2022-12-31T11:09:23.171Z,98569.56
2022-12-31T11:11:50.597Z,98563.53
2022-12-31T11:14:17.684Z,98562.38
2022-12-31T11:16:44.763Z,98557.84
2022-12-31T11:19:11.839Z,98550.84
2022-12-31T11:21:41.331Z,98548.25
2022-12-31T11:24:08.907Z,98551.81
2022-12-31T11:26:35.971Z,98549.06
2022-12-31T11:29:03.752Z,98549.06
2022-12-31T11:31:30.946Z,98548.25
2022-12-31T11:33:58.048Z,98539.59
2022-12-31T11:36:25.791Z,98537.00
2022-12-31T11:38:52.951Z,98550.97
2022-12-31T11:41:20.004Z,98548.72
2022-12-31T11:43:47.160Z,98548.59
2022-12-31T11:46:14.245Z,98549.41
2022-12-31T11:48:41.310Z,98551.31
2022-12-31T11:51:08.372Z,98556.41
2022-12-31T11:53:35.474Z,98558.19
2022-12-31T11:56:02.578Z,98559.16
2022-12-31T11:58:29.690Z,98557.38
2022-12-31T12:00:56.938Z,98560.78
2022-12-31T12:03:24.641Z,98557.03
2022-12-31T12:05:51.820Z,98554.84
2022-12-31T12:08:18.979Z,98558.19
2022-12-31T12:10:46.034Z,98555.38
2022-12-31T12:13:13.454Z,98549.91
2022-12-31T12:15:40.532Z,98546.94
2022-12-31T12:18:07.651Z,98550.13
2022-12-31T12:20:34.750Z,98554.38
2022-12-31T12:23:01.932Z,98551.31
2022-12-31T12:25:29.065Z,98545.97
2022-12-31T12:27:56.155Z,98547.91
2022-12-31T12:30:23.291Z,98537.72
2022-12-31T12:32:50.367Z,98534.00
2022-12-31T12:35:17.440Z,98539.81
2022-12-31T12:37:44.521Z,98533.91
2022-12-31T12:40:11.610Z,98545.16
2022-12-31T12:42:38.733Z,98536.13
2022-12-31T12:45:05.827Z,98538.59
2022-12-31T12:47:32.894Z,98535.16
2022-12-31T12:49:59.948Z,98541.91
2022-12-31T12:52:27.166Z,98538.59
2022-12-31T12:54:54.219Z,98550.00
2022-12-31T12:57:21.316Z,98538.59
2022-12-31T12:59:48.377Z,98537.66
2022-12-31T13:02:15.512Z,98535.75
2022-12-31T13:04:42.607Z,98535.06
2022-12-31T13:07:09.727Z,98529.25
2022-12-31T13:09:36.808Z,98529.25
2022-12-31T13:12:07.598Z,98532.81
2022-12-31T13:14:35.122Z,98536.50
2022-12-31T13:17:04.091Z,98535.69
2022-12-31T13:19:31.261Z,98536.75
2022-12-31T13:21:58.331Z,98531.53
2022-12-31T13:24:25.406Z,98536.75
2022-12-31T13:26:52.512Z,98527.28
2022-12-31T13:29:19.738Z,98522.06
2022-12-31T13:31:46.894Z,98523.00
2022-12-31T13:34:15.121Z,98515.16
2022-12-31T13:36:42.317Z,98514.34
2022-12-31T13:39:09.388Z,98509.13
2022-12-31T13:41:36.472Z,98511.75
2022-12-31T13:44:03.618Z,98504.06
2022-12-31T13:46:30.676Z,98510.09
2022-12-31T13:48:57.913Z,98508.31
2022-12-31T13:51:25.005Z,98507.34
2022-12-31T13:53:52.081Z,98505.47
2022-12-31T13:56:19.401Z,98499.06
2022-12-31T13:58:46.511Z,98506.53
2022-12-31T14:01:13.667Z,98503.00
2022-12-31T14:03:41.008Z,98515.06
2022-12-31T14:06:08.081Z,98518.34
2022-12-31T14:08:35.183Z,98525.50
2022-12-31T14:11:02.281Z,98518.50
2022-12-31T14:13:34.595Z,98520.38
2022-12-31T14:16:02.124Z,98518.75
2022-12-31T14:18:29.218Z,98524.78
2022-12-31T14:20:56.310Z,98534.72
2022-12-31T14:23:23.525Z,98534.72
2022-12-31T14:25:50.623Z,98530.72
2022-12-31T14:28:17.682Z,98531.78
2022-12-31T14:30:44.757Z,98533.81
2022-12-31T14:33:11.834Z,98539.00
2022-12-31T14:35:38.932Z,98545.06
2022-12-31T14:38:06.032Z,98541.63
2022-12-31T14:40:33.105Z,98541.63
2022-12-31T14:43:00.178Z,98545.06
2022-12-31T14:45:27.235Z,98551.09
2022-12-31T14:47:54.317Z,98558.91
2022-12-31T14:50:21.402Z,98557.16
2022-12-31T14:52:48.565Z,98553.69
2022-12-31T14:55:15.630Z,98557.50
2022-12-31T14:58:25.326Z,98546.25
2022-12-31T15:00:29.778Z,98548.75
2022-12-31T15:02:56.917Z,98558.22
2022-12-31T15:05:24.028Z,98555.75
2022-12-31T15:07:51.087Z,98559.19
2022-12-31T15:10:18.165Z,98559.88
2022-12-31T15:12:45.236Z,98561.56
2022-12-31T15:15:12.340Z,98556.22
2022-12-31T15:17:39.419Z,98553.25
2022-12-31T15:20:11.467Z,98553.38
2022-12-31T15:22:43.679Z,98551.00
2022-12-31T15:25:10.761Z,98561.31
2022-12-31T15:27:37.920Z,98566.66
2022-12-31T15:30:05.021Z,98560.59
2022-12-31T15:32:32.094Z,98561.56
2022-12-31T15:34:59.167Z,98560.59
2022-12-31T15:37:26.234Z,98566.78
2022-12-31T15:39:53.308Z,98569.38
2022-12-31T15:42:37.470Z,98566.88
2022-12-31T15:45:05.461Z,98565.59
2022-12-31T15:47:34.829Z,98563.91
2022-12-31T15:50:01.883Z,98564.72
2022-12-31T15:52:28.962Z,98563.59
2022-12-31T15:54:56.034Z,98566.19
2022-12-31T15:57:23.114Z,98561.66
2022-12-31T15:59:50.166Z,98570.78
2022-12-31T16:02:17.372Z,98576.69
2022-12-31T16:04:44.576Z,98580.03
2022-12-31T16:07:11.667Z,98572.06
2022-12-31T16:09:38.753Z,98573.84
2022-12-31T16:12:05.956Z,98574.91
2022-12-31T16:14:33.264Z,98564.88
2022-12-31T16:17:00.344Z,98569.38
2022-12-31T16:19:27.512Z,98570.22
2022-12-31T16:21:54.561Z,98567.59
2022-12-31T16:24:21.643Z,98569.25
2022-12-31T16:26:48.717Z,98578.03
2022-12-31T16:29:15.813Z,98580.38
2022-12-31T16:31:42.884Z,98583.69
2022-12-31T16:34:09.945Z,98583.25
2022-12-31T16:36:37.009Z,98580.13
2022-12-31T16:39:04.076Z,98576.69
2022-12-31T16:41:31.145Z,98586.88
2022-12-31T16:43:58.200Z,98581.69
2022-12-31T16:46:26.943Z,98581.31
2022-12-31T16:48:54.245Z,98572.91
2022-12-31T16:51:21.335Z,98582.41
2022-12-31T16:53:48.412Z,98581.31
2022-12-31T16:56:15.520Z,98580.25
2022-12-31T16:58:42.706Z,98576.13
2022-12-31T17:01:09.837Z,98579.31
2022-12-31T17:03:36.910Z,98580.13
2022-12-31T17:06:04.017Z,98581.91
2022-12-31T17:08:31.067Z,98592.34
2022-12-31T17:10:58.169Z,98590.69
2022-12-31T17:13:28.404Z,98589.03
2022-12-31T17:15:56.394Z,98589.97
2022-12-31T17:18:23.564Z,98592.84
2022-12-31T17:20:51.014Z,98588.94
2022-12-31T17:23:18.099Z,98583.47
2022-12-31T17:25:45.159Z,98576.63
2022-12-31T17:28:12.219Z,98583.72
2022-12-31T17:30:40.298Z,98584.31
2022-12-31T17:33:07.379Z,98590.22
2022-12-31T17:35:34.540Z,98592.47
2022-12-31T17:38:01.612Z,98588.09
2022-12-31T17:40:50.573Z,98585.59
2022-12-31T17:43:15.808Z,98597.09
2022-12-31T17:45:42.943Z,98596.28
2022-12-31T17:48:10.056Z,98593.53
2022-12-31T17:50:37.141Z,98598.75
2022-12-31T17:53:04.197Z,98601.59
2022-12-31T17:55:31.335Z,98605.88
2022-12-31T17:57:58.487Z,98606.81
2022-12-31T18:00:25.659Z,98599.81
2022-12-31T18:02:53.395Z,98608.69
2022-12-31T18:05:20.532Z,98596.25
2022-12-31T18:07:47.686Z,98602.66
2022-12-31T18:10:15.152Z,98607.38
2022-12-31T18:12:42.236Z,98604.19
2022-12-31T18:15:09.349Z,98609.53
2022-12-31T18:17:36.439Z,98605.97
2022-12-31T18:20:05.257Z,98610.81
2022-12-31T18:22:33.319Z,98624.19
2022-12-31T18:25:00.395Z,98614.38
2022-12-31T18:27:27.485Z,98623.84
2022-12-31T18:29:59.108Z,98625.84
2022-12-31T18:32:34.122Z,98631.06
2022-12-31T18:35:02.056Z,98629.78
2022-12-31T18:37:29.204Z,98634.16
2022-12-31T18:39:56.285Z,98635.44
2022-12-31T18:42:23.360Z,98633.66
2022-12-31T18:44:50.430Z,98635.44
2022-12-31T18:47:17.499Z,98633.66
2022-12-31T18:49:48.687Z,98632.00
2022-12-31T18:52:15.910Z,98627.56
2022-12-31T18:54:42.995Z,98630.97
2022-12-31T18:57:10.107Z,98622.41
2022-12-31T18:59:37.204Z,98636.19
2022-12-31T19:02:04.508Z,98623.72
2022-12-31T19:04:31.674Z,98630.47
2022-12-31T19:06:58.771Z,98627.56
2022-12-31T19:12:12.937Z,98628.81
2022-12-31T19:14:40.028Z,98632.50
2022-12-31T19:19:34.743Z,98627.75
2022-12-31T19:22:02.840Z,98638.06
2022-12-31T19:24:30.132Z,98638.88
2022-12-31T19:26:57.291Z,98639.03
2022-12-31T19:29:24.372Z,98637.84
2022-12-31T19:31:51.504Z,98633.81
2022-12-31T19:34:18.667Z,98637.03
2022-12-31T19:36:45.744Z,98643.50
2022-12-31T19:39:12.800Z,98639.16
2022-12-31T19:41:39.888Z,98640.22
2022-12-31T19:44:06.968Z,98636.41
2022-12-31T19:46:34.045Z,98633.66
2022-12-31T19:49:01.127Z,98636.41
2022-12-31T19:51:28.195Z,98630.59
2022-12-31T19:53:55.296Z,98632.16
2022-12-31T19:56:22.381Z,98632.16
2022-12-31T19:58:49.510Z,98639.25
2022-12-31T20:01:16.713Z,98641.75
2022-12-31T20:03:43.856Z,98648.41
2022-12-31T20:06:11.061Z,98647.06
2022-12-31T20:08:38.261Z,98654.78
2022-12-31T20:11:05.329Z,98649.00
2022-12-31T20:13:32.438Z,98661.91
2022-12-31T20:15:59.531Z,98670.69
2022-12-31T20:18:26.599Z,98670.69
2022-12-31T20:20:56.048Z,98673.75
2022-12-31T20:23:23.293Z,98665.09
2022-12-31T20:25:50.378Z,98670.91
2022-12-31T20:28:17.448Z,98664.72
2022-12-31T20:30:44.542Z,98669.25
2022-12-31T20:33:17.296Z,98668.28
2022-12-31T20:35:46.043Z,98670.75
2022-12-31T20:38:13.124Z,98678.34
2022-12-31T20:40:46.165Z,98674.69
2022-12-31T20:43:13.679Z,98674.78
2022-12-31T20:45:40.912Z,98677.38
2022-12-31T20:48:08.089Z,98677.38
2022-12-31T20:50:35.346Z,98667.69
2022-12-31T20:53:02.536Z,98666.50
2022-12-31T20:55:30.832Z,98661.06
2022-12-31T20:57:57.948Z,98669.47
2022-12-31T21:00:25.026Z,98668.50
2022-12-31T21:03:03.869Z,98673.13
2022-12-31T21:05:33.863Z,98669.56
2022-12-31T21:08:01.106Z,98665.31
2022-12-31T21:10:28.296Z,98670.75
2022-12-31T21:12:55.376Z,98665.31
2022-12-31T21:15:22.495Z,98658.22
2022-12-31T21:17:49.617Z,98665.19
2022-12-31T21:20:16.686Z,98666.84
2022-12-31T21:22:43.781Z,98673.84
2022-12-31T21:25:10.947Z,98667.78
2022-12-31T21:27:38.231Z,98660.09
2022-12-31T21:30:20.744Z,98660.09
2022-12-31T21:32:48.272Z,98659.03
2022-12-31T21:35:42.240Z,98660.81
2022-12-31T21:38:02.661Z,98665.06
2022-12-31T21:40:29.745Z,98664.94
2022-12-31T21:42:56.835Z,98670.28
2022-12-31T21:45:23.904Z,98677.38
2022-12-31T21:48:09.564Z,98678.22
2022-12-31T21:50:36.792Z,98686.03
2022-12-31T21:53:03.880Z,98682.75
2022-12-31T21:55:49.866Z,98694.13
2022-12-31T21:58:26.515Z,98694.81
2022-12-31T22:01:13.487Z,98697.66
2022-12-31T22:03:40.767Z,98696.97
2022-12-31T22:06:14.442Z,98699.44
2022-12-31T22:08:41.561Z,98705.75
2022-12-31T22:11:08.692Z,98705.63
2022-12-31T22:13:35.768Z,98711.44
2022-12-31T22:16:05.781Z,98707.16
2022-12-31T22:18:34.982Z,98708.09
2022-12-31T22:21:02.175Z,98713.31
2022-12-31T22:23:30.027Z,98714.03
2022-12-31T22:25:57.111Z,98718.53
2022-12-31T22:28:40.345Z,98715.09
2022-12-31T22:31:07.707Z,98723.75
2022-12-31T22:33:34.809Z,98718.91
2022-12-31T22:36:01.932Z,98726.47
2022-12-31T22:38:29.020Z,98727.06
2022-12-31T22:40:56.186Z,98730.16
2022-12-31T22:43:23.354Z,98732.75
2022-12-31T22:45:50.448Z,98740.94
2022-12-31T22:48:17.536Z,98730.50
2022-12-31T22:50:44.622Z,98732.06
2022-12-31T22:53:11.719Z,98735.50
2022-12-31T22:55:39.074Z,98731.84
2022-12-31T22:58:06.167Z,98736.69
2022-12-31T23:00:34.728Z,98731.69
2022-12-31T23:03:01.977Z,98736.19
2022-12-31T23:05:29.150Z,98732.75
2022-12-31T23:07:59.026Z,98738.94
2022-12-31T23:10:44.652Z,98744.28
2022-12-31T23:13:30.714Z,98752.09
2022-12-31T23:16:16.382Z,98749.50
2022-12-31T23:19:05.606Z,98746.16
2022-12-31T23:21:51.439Z,98756.81
2022-12-31T23:24:22.918Z,98748.06
2022-12-31T23:26:53.257Z,98750.69
2022-12-31T23:29:20.322Z,98753.38
2022-12-31T23:31:47.411Z,98753.38
2022-12-31T23:34:15.616Z,98760.38
2022-12-31T23:36:42.692Z,98758.09
2022-12-31T23:39:09.748Z,98755.59
2022-12-31T23:41:36.855Z,98763.00
2022-12-31T23:44:03.933Z,98756.81
2022-12-31T23:46:31.051Z,98751.00
2022-12-31T23:48:58.201Z,98750.06
2022-12-31T23:51:25.336Z,98751.72
2022-12-31T23:53:52.417Z,98755.31
2022-12-31T23:56:23.654Z,98753.75
2022-12-31T23:58:51.291Z,98751.72
